createdAt,value
2019-03-24T00:01:41.474Z,4.30
2019-03-24T00:04:13.839Z,4.30
2019-03-24T00:06:47.849Z,4.30
2019-03-24T00:09:20.774Z,4.30
2019-03-24T00:11:51.784Z,4.30
2019-03-24T00:14:24.810Z,4.30
2019-03-24T00:17:00.916Z,4.20
2019-03-24T00:19:31.140Z,4.20
2019-03-24T00:22:02.077Z,4.20
2019-03-24T00:24:32.117Z,4.10
2019-03-24T00:27:02.548Z,4.10
2019-03-24T00:29:35.881Z,4.10
2019-03-24T00:32:08.918Z,4.10
2019-03-24T00:34:44.613Z,4.10
2019-03-24T00:37:17.323Z,4.00
2019-03-24T00:39:58.236Z,3.90
2019-03-24T00:42:31.440Z,3.90
2019-03-24T00:45:03.472Z,3.90
2019-03-24T00:47:33.733Z,3.80
2019-03-24T00:50:08.386Z,3.90
2019-03-24T00:52:41.568Z,3.80
2019-03-24T00:55:13.545Z,3.80
2019-03-24T00:57:43.348Z,3.80
2019-03-24T01:00:15.704Z,3.70
2019-03-24T01:02:51.091Z,3.80
2019-03-24T01:05:24.753Z,3.70
2019-03-24T01:07:57.481Z,3.70
2019-03-24T01:10:30.499Z,3.70
2019-03-24T01:13:03.384Z,3.60
2019-03-24T01:15:35.993Z,3.70
2019-03-24T01:18:11.722Z,3.60
2019-03-24T01:20:42.104Z,3.60
2019-03-24T01:23:15.916Z,3.70
2019-03-24T01:25:47.316Z,3.60
2019-03-24T01:28:20.401Z,3.60
2019-03-24T01:30:53.577Z,3.50
2019-03-24T01:33:26.281Z,3.50
2019-03-24T01:35:56.903Z,3.40
2019-03-24T01:38:27.622Z,3.50
2019-03-24T01:41:01.643Z,3.50
2019-03-24T01:43:33.768Z,3.50
2019-03-24T01:46:03.114Z,3.40
2019-03-24T01:48:36.713Z,3.40
2019-03-24T01:51:08.319Z,3.40
2019-03-24T01:53:41.448Z,3.40
2019-03-24T01:56:12.966Z,3.40
2019-03-24T01:58:45.078Z,3.30
2019-03-24T02:01:15.402Z,3.30
2019-03-24T02:03:47.639Z,3.30
2019-03-24T02:06:22.485Z,3.30
2019-03-24T02:08:53.172Z,3.40
2019-03-24T02:11:26.575Z,3.40
2019-03-24T02:13:56.400Z,3.30
2019-03-24T02:16:29.485Z,3.30
2019-03-24T02:19:01.803Z,3.30
2019-03-24T02:21:32.997Z,3.30
2019-03-24T02:24:03.104Z,3.30
2019-03-24T02:26:32.484Z,3.30
2019-03-24T02:29:03.544Z,3.20
2019-03-24T02:31:36.681Z,3.20
2019-03-24T02:34:08.648Z,3.20
2019-03-24T02:36:41.592Z,3.10
2019-03-24T02:39:16.846Z,3.10
2019-03-24T02:41:48.573Z,3.10
2019-03-24T02:44:19.509Z,3.00
2019-03-24T02:46:53.052Z,3.00
2019-03-24T02:49:26.635Z,3.00
2019-03-24T02:51:59.020Z,3.00
2019-03-24T02:54:32.796Z,3.00
2019-03-24T02:57:04.708Z,2.90
2019-03-24T02:59:34.454Z,2.90
2019-03-24T03:02:04.310Z,2.90
2019-03-24T03:04:38.717Z,2.90
2019-03-24T03:07:11.001Z,3.00
2019-03-24T03:09:44.349Z,2.90
2019-03-24T03:12:16.171Z,2.90
2019-03-24T03:14:48.473Z,2.90
2019-03-24T03:17:19.081Z,2.90
2019-03-24T03:19:53.733Z,2.90
2019-03-24T03:22:24.683Z,3.00
2019-03-24T03:24:55.823Z,3.00
2019-03-24T03:27:28.750Z,2.90
2019-03-24T03:30:02.332Z,2.90
2019-03-24T03:32:35.035Z,2.80
2019-03-24T03:35:10.168Z,2.80
2019-03-24T03:37:43.156Z,2.80
2019-03-24T03:40:15.125Z,2.80
2019-03-24T03:42:50.275Z,2.80
2019-03-24T03:45:29.362Z,2.70
2019-03-24T03:48:03.331Z,2.70
2019-03-24T03:50:40.443Z,2.70
2019-03-24T03:53:12.201Z,2.70
2019-03-24T03:55:45.503Z,2.70
2019-03-24T03:58:15.601Z,2.70
2019-03-24T04:00:45.801Z,2.60
2019-03-24T04:03:19.511Z,2.60
2019-03-24T04:05:49.252Z,2.60
2019-03-24T04:08:18.613Z,2.50
2019-03-24T04:10:49.912Z,2.50
2019-03-24T04:13:19.629Z,2.50
2019-03-24T04:15:49.744Z,2.40
2019-03-24T04:18:20.937Z,2.40
2019-03-24T04:20:53.902Z,2.40
2019-03-24T04:23:27.344Z,2.30
2019-03-24T04:26:02.718Z,2.30
2019-03-24T04:28:35.598Z,2.30
2019-03-24T04:31:07.283Z,2.30
2019-03-24T04:33:40.142Z,2.30
2019-03-24T04:36:11.262Z,2.30
2019-03-24T04:38:44.118Z,2.20
2019-03-24T04:41:16.772Z,2.30
2019-03-24T04:43:49.478Z,2.20
2019-03-24T04:46:24.300Z,2.20
2019-03-24T04:48:59.189Z,2.20
2019-03-24T04:51:29.986Z,2.20
2019-03-24T04:54:02.148Z,2.20
2019-03-24T04:56:32.712Z,2.20
2019-03-24T04:59:01.671Z,2.20
2019-03-24T05:01:32.284Z,2.20
2019-03-24T05:04:05.013Z,2.20
2019-03-24T05:06:37.172Z,2.20
2019-03-24T05:09:10.084Z,2.20
2019-03-24T05:11:41.937Z,2.30
2019-03-24T05:14:14.889Z,2.30
2019-03-24T05:16:45.260Z,2.20
2019-03-24T05:19:17.264Z,2.20
2019-03-24T05:21:48.888Z,2.20
2019-03-24T05:24:21.126Z,2.20
2019-03-24T05:26:54.182Z,2.20
2019-03-24T05:29:27.067Z,2.20
2019-03-24T05:32:00.301Z,2.20
2019-03-24T05:34:34.103Z,2.20
2019-03-24T05:37:05.716Z,2.20
2019-03-24T05:39:39.019Z,2.20
2019-03-24T05:42:11.181Z,2.30
2019-03-24T05:44:41.728Z,2.30
2019-03-24T05:47:14.356Z,2.30
2019-03-24T05:49:47.030Z,2.30
2019-03-24T05:52:20.396Z,2.30
2019-03-24T05:54:53.292Z,2.30
2019-03-24T05:57:29.760Z,2.30
2019-03-24T06:00:01.434Z,2.30
2019-03-24T06:02:31.353Z,2.30
2019-03-24T06:05:01.259Z,2.40
2019-03-24T06:07:35.021Z,2.50
2019-03-24T06:10:06.270Z,2.50
2019-03-24T06:12:35.675Z,2.60
2019-03-24T06:15:09.256Z,2.60
2019-03-24T06:17:47.829Z,2.80
2019-03-24T06:20:17.514Z,2.90
2019-03-24T06:22:49.768Z,3.10
2019-03-24T06:25:20.101Z,3.10
2019-03-24T06:27:51.092Z,3.10
2019-03-24T06:30:29.622Z,3.20
2019-03-24T06:33:02.068Z,3.30
2019-03-24T06:35:33.911Z,3.40
2019-03-24T06:38:06.802Z,3.40
2019-03-24T06:40:39.871Z,3.60
2019-03-24T06:43:12.937Z,3.70
2019-03-24T06:45:43.341Z,3.70
2019-03-24T06:48:13.513Z,3.80
2019-03-24T06:50:43.906Z,3.90
2019-03-24T06:53:13.685Z,3.90
2019-03-24T06:55:44.212Z,4.00
2019-03-24T06:58:18.098Z,4.10
2019-03-24T07:00:50.100Z,4.10
2019-03-24T07:03:21.896Z,4.10
2019-03-24T07:05:54.193Z,4.10
2019-03-24T07:08:24.386Z,4.10
2019-03-24T07:10:55.237Z,4.10
2019-03-24T07:13:28.056Z,4.20
2019-03-24T07:15:58.476Z,4.20
2019-03-24T07:18:30.817Z,4.20
2019-03-24T07:21:00.356Z,4.30
2019-03-24T07:23:30.857Z,4.30
2019-03-24T07:26:04.900Z,4.30
2019-03-24T07:28:35.124Z,4.40
2019-03-24T07:31:06.872Z,4.50
2019-03-24T07:33:39.404Z,4.60
2019-03-24T07:36:13.573Z,4.70
2019-03-24T07:38:47.087Z,4.80
2019-03-24T07:41:20.077Z,4.80
2019-03-24T07:43:52.425Z,4.80
2019-03-24T07:46:25.412Z,4.80
2019-03-24T07:48:59.340Z,4.90
2019-03-24T07:51:31.977Z,5.00
2019-03-24T07:54:03.466Z,5.10
2019-03-24T07:56:36.201Z,5.20
2019-03-24T07:59:07.493Z,5.30
2019-03-24T08:01:38.896Z,5.40
2019-03-24T08:04:11.206Z,5.30
2019-03-24T08:06:45.660Z,5.30
2019-03-24T08:09:21.200Z,5.40
2019-03-24T08:11:51.055Z,5.50
2019-03-24T08:14:20.893Z,5.50
2019-03-24T08:16:53.621Z,5.50
2019-03-24T08:19:25.960Z,5.50
2019-03-24T08:22:00.600Z,5.60
2019-03-24T08:24:35.829Z,5.80
2019-03-24T08:27:07.804Z,5.70
2019-03-24T08:29:40.372Z,5.70
2019-03-24T08:32:15.881Z,5.80
2019-03-24T08:34:48.283Z,5.90
2019-03-24T08:37:17.280Z,6.00
2019-03-24T08:39:46.645Z,6.10
2019-03-24T08:42:16.892Z,6.20
2019-03-24T08:44:46.611Z,6.20
2019-03-24T08:47:17.248Z,6.20
2019-03-24T08:49:50.074Z,6.30
2019-03-24T08:52:23.748Z,6.40
2019-03-24T08:54:56.505Z,6.50
2019-03-24T08:57:28.207Z,6.70
2019-03-24T09:00:00.540Z,6.70
2019-03-24T09:02:31.144Z,6.70
2019-03-24T09:05:00.996Z,6.70
2019-03-24T09:07:34.100Z,6.70
2019-03-24T09:10:05.400Z,6.70
2019-03-24T09:12:37.100Z,6.80
2019-03-24T09:15:10.468Z,6.80
2019-03-24T09:17:41.313Z,6.90
2019-03-24T09:20:11.356Z,6.90
2019-03-24T09:22:43.669Z,6.90
2019-03-24T09:25:15.484Z,7.00
2019-03-24T09:27:45.822Z,7.10
2019-03-24T09:30:35.592Z,7.10
2019-03-24T09:33:07.806Z,7.10
2019-03-24T09:35:39.791Z,7.20
2019-03-24T09:38:14.972Z,7.30
2019-03-24T09:40:47.281Z,7.30
2019-03-24T09:43:18.662Z,7.50
2019-03-24T09:45:49.184Z,7.50
2019-03-24T09:48:20.192Z,7.50
2019-03-24T09:50:50.717Z,7.60
2019-03-24T09:53:22.736Z,7.50
2019-03-24T09:55:55.028Z,7.60
2019-03-24T09:58:27.684Z,7.60
2019-03-24T10:01:02.761Z,7.60
2019-03-24T10:03:34.810Z,7.70
2019-03-24T10:06:07.466Z,7.80
2019-03-24T10:08:46.740Z,7.80
2019-03-24T10:11:14.359Z,7.80
2019-03-24T10:13:45.563Z,7.80
2019-03-24T10:16:18.538Z,7.80
2019-03-24T10:18:54.504Z,7.90
2019-03-24T10:21:25.360Z,8.00
2019-03-24T10:23:56.693Z,8.10
2019-03-24T10:26:26.486Z,8.20
2019-03-24T10:28:56.048Z,8.30
2019-03-24T10:31:29.777Z,8.30
2019-03-24T10:34:04.196Z,8.30
2019-03-24T10:36:38.062Z,8.30
2019-03-24T10:39:10.953Z,8.40
2019-03-24T10:41:45.685Z,8.40
2019-03-24T10:44:17.962Z,8.50
2019-03-24T10:46:50.699Z,8.60
2019-03-24T10:49:26.705Z,8.60
2019-03-24T10:52:00.852Z,8.80
2019-03-24T10:54:33.685Z,8.90
2019-03-24T10:57:09.964Z,8.80
2019-03-24T10:59:42.810Z,9.00
2019-03-24T11:02:14.916Z,9.10
2019-03-24T11:04:46.633Z,9.20
2019-03-24T11:07:20.422Z,9.30
2019-03-24T11:09:51.345Z,9.30
2019-03-24T11:12:26.662Z,9.40
2019-03-24T11:14:59.496Z,9.30
2019-03-24T11:17:32.716Z,9.40
2019-03-24T11:20:04.900Z,9.30
2019-03-24T11:22:36.600Z,9.20
2019-03-24T11:25:10.346Z,9.10
2019-03-24T11:27:45.398Z,9.20
2019-03-24T11:30:17.258Z,9.20
2019-03-24T11:32:46.249Z,9.30
2019-03-24T11:35:16.996Z,9.20
2019-03-24T11:37:47.819Z,9.20
2019-03-24T11:40:19.480Z,9.30
2019-03-24T11:42:50.773Z,9.20
2019-03-24T11:45:23.340Z,9.30
2019-03-24T11:47:53.726Z,9.40
2019-03-24T11:50:23.149Z,9.50
2019-03-24T11:52:55.949Z,9.50
2019-03-24T11:55:37.085Z,9.40
2019-03-24T11:58:08.365Z,9.40
2019-03-24T12:00:40.665Z,9.50
2019-03-24T12:03:16.449Z,9.50
2019-03-24T12:05:52.772Z,9.40
2019-03-24T12:08:24.216Z,9.30
2019-03-24T12:10:56.328Z,9.20
2019-03-24T12:13:29.105Z,9.20
2019-03-24T12:16:00.596Z,9.30
2019-03-24T12:18:32.396Z,9.30
2019-03-24T12:21:02.762Z,9.30
2019-03-24T12:23:34.101Z,9.20
2019-03-24T12:26:05.340Z,9.20
2019-03-24T12:28:38.642Z,9.20
2019-03-24T12:31:10.990Z,9.20
2019-03-24T12:33:43.756Z,9.30
2019-03-24T12:36:16.566Z,9.40
2019-03-24T12:38:48.345Z,9.40
2019-03-24T12:41:20.255Z,9.50
2019-03-24T12:43:50.941Z,9.70
2019-03-24T12:46:22.282Z,9.50
2019-03-24T12:48:57.188Z,9.50
2019-03-24T12:51:28.403Z,9.40
2019-03-24T12:54:04.209Z,9.50
2019-03-24T12:56:35.532Z,9.50
2019-03-24T12:59:07.005Z,9.40
2019-03-24T13:01:36.549Z,9.40
2019-03-24T13:04:08.765Z,9.50
2019-03-24T13:06:40.103Z,9.60
2019-03-24T13:09:10.529Z,9.60
2019-03-24T13:11:40.821Z,9.60
2019-03-24T13:14:11.573Z,9.70
2019-03-24T13:16:44.788Z,9.60
2019-03-24T13:19:16.141Z,9.60
2019-03-24T13:21:46.414Z,9.50
2019-03-24T13:24:19.414Z,9.60
2019-03-24T13:26:51.449Z,9.50
2019-03-24T13:29:24.584Z,9.40
2019-03-24T13:32:00.362Z,9.40
2019-03-24T13:34:33.599Z,9.40
2019-03-24T13:37:05.726Z,9.40
2019-03-24T13:39:39.766Z,9.50
2019-03-24T13:42:09.824Z,9.50
2019-03-24T13:44:40.907Z,9.30
2019-03-24T13:47:15.920Z,9.50
2019-03-24T13:49:48.573Z,9.50
2019-03-24T13:52:21.564Z,9.50
2019-03-24T13:54:51.347Z,9.50
2019-03-24T13:57:24.818Z,9.50
2019-03-24T14:00:00.313Z,9.50
2019-03-24T14:02:32.470Z,9.60
2019-03-24T14:05:08.568Z,9.60
2019-03-24T14:07:40.527Z,9.40
2019-03-24T14:10:13.220Z,9.50
2019-03-24T14:12:46.520Z,9.40
2019-03-24T14:15:19.377Z,9.40
2019-03-24T14:17:51.584Z,9.40
2019-03-24T14:20:24.121Z,9.30
2019-03-24T14:22:57.255Z,9.30
2019-03-24T14:25:28.909Z,9.50
2019-03-24T14:28:01.682Z,9.50
2019-03-24T14:30:51.934Z,9.40
2019-03-24T14:33:22.216Z,9.30
2019-03-24T14:35:54.482Z,9.30
2019-03-24T14:38:26.764Z,9.20
2019-03-24T14:40:58.923Z,9.20
2019-03-24T14:43:34.604Z,9.10
2019-03-24T14:46:08.712Z,9.10
2019-03-24T14:48:46.924Z,9.20
2019-03-24T14:51:20.228Z,9.10
2019-03-24T14:53:51.325Z,9.20
2019-03-24T14:56:24.920Z,9.20
2019-03-24T14:58:59.113Z,9.30
2019-03-24T15:01:34.305Z,9.40
2019-03-24T15:04:07.726Z,9.20
2019-03-24T15:06:38.964Z,9.10
2019-03-24T15:09:09.396Z,9.00
2019-03-24T15:11:45.289Z,9.10
2019-03-24T15:14:20.216Z,9.20
2019-03-24T15:16:53.424Z,9.20
2019-03-24T15:19:23.510Z,9.20
2019-03-24T15:21:55.167Z,9.30
2019-03-24T15:24:26.402Z,9.30
2019-03-24T15:27:03.948Z,9.20
2019-03-24T15:29:35.413Z,9.20
2019-03-24T15:32:07.215Z,9.20
2019-03-24T15:34:38.025Z,9.20
2019-03-24T15:37:08.156Z,9.10
2019-03-24T15:39:38.452Z,9.20
2019-03-24T15:42:10.041Z,9.30
2019-03-24T15:44:40.168Z,9.10
2019-03-24T15:47:13.356Z,9.10
2019-03-24T15:49:44.560Z,9.10
2019-03-24T15:52:17.332Z,9.00
2019-03-24T15:54:50.152Z,9.00
2019-03-24T15:57:22.861Z,8.90
2019-03-24T16:00:01.554Z,8.90
2019-03-24T16:02:33.232Z,9.00
2019-03-24T16:05:04.254Z,8.90
2019-03-24T16:07:34.527Z,8.80
2019-03-24T16:10:04.115Z,8.80
2019-03-24T16:12:36.951Z,8.70
2019-03-24T16:15:09.716Z,8.60
2019-03-24T16:17:41.947Z,8.50
2019-03-24T16:20:14.989Z,8.40
2019-03-24T16:22:47.828Z,8.30
2019-03-24T16:25:20.009Z,8.20
2019-03-24T16:27:53.362Z,8.20
2019-03-24T16:30:25.138Z,8.10
2019-03-24T16:32:56.513Z,8.10
2019-03-24T16:35:26.542Z,8.10
2019-03-24T16:37:57.842Z,8.00
2019-03-24T16:40:33.008Z,8.00
2019-03-24T16:43:07.976Z,7.90
2019-03-24T16:45:38.156Z,7.90
2019-03-24T16:48:09.360Z,7.70
2019-03-24T16:50:42.321Z,7.60
2019-03-24T16:53:12.198Z,7.50
2019-03-24T16:55:43.088Z,7.30
2019-03-24T16:58:14.144Z,7.20
2019-03-24T17:00:43.573Z,7.20
2019-03-24T17:03:16.401Z,7.20
2019-03-24T17:05:49.257Z,7.10
2019-03-24T17:08:20.017Z,7.10
2019-03-24T17:10:52.011Z,6.90
2019-03-24T17:13:26.252Z,6.80
2019-03-24T17:15:57.032Z,6.90
2019-03-24T17:18:30.741Z,6.90
2019-03-24T17:21:02.632Z,6.80
2019-03-24T17:23:34.681Z,6.70
2019-03-24T17:26:07.124Z,6.80
2019-03-24T17:28:38.234Z,6.70
2019-03-24T17:31:09.913Z,6.70
2019-03-24T17:33:43.345Z,6.60
2019-03-24T17:36:20.066Z,6.50
2019-03-24T17:38:51.730Z,6.50
2019-03-24T17:41:25.673Z,6.50
2019-03-24T17:44:03.089Z,6.40
2019-03-24T17:46:33.717Z,6.40
2019-03-24T17:49:06.535Z,6.30
2019-03-24T17:51:38.275Z,6.20
2019-03-24T17:54:08.438Z,6.20
2019-03-24T17:56:42.872Z,6.10
2019-03-24T17:59:15.015Z,6.10
2019-03-24T18:01:47.748Z,6.00
2019-03-24T18:04:24.542Z,6.00
2019-03-24T18:06:53.806Z,5.90
2019-03-24T18:09:26.410Z,5.90
2019-03-24T18:11:59.121Z,5.80
2019-03-24T18:14:32.038Z,5.70
2019-03-24T18:17:05.733Z,5.70
2019-03-24T18:19:37.389Z,5.70
2019-03-24T18:22:11.741Z,5.70
2019-03-24T18:24:43.026Z,5.60
2019-03-24T18:27:17.923Z,5.50
2019-03-24T18:29:50.133Z,5.50
2019-03-24T18:32:23.216Z,5.40
2019-03-24T18:34:56.037Z,5.40
2019-03-24T18:37:29.050Z,5.40
2019-03-24T18:40:01.017Z,5.30
2019-03-24T18:42:34.180Z,5.30
2019-03-24T18:45:05.128Z,5.20
2019-03-24T18:47:35.084Z,5.20
2019-03-24T18:50:09.157Z,5.10
2019-03-24T18:52:43.017Z,5.10
2019-03-24T18:55:16.877Z,5.10
2019-03-24T18:57:47.300Z,5.00
2019-03-24T19:00:17.248Z,5.00
2019-03-24T19:02:49.096Z,5.00
2019-03-24T19:05:19.868Z,5.00
2019-03-24T19:07:49.962Z,4.90
2019-03-24T19:10:19.765Z,4.80
2019-03-24T19:12:48.788Z,4.70
2019-03-24T19:15:17.907Z,4.70
2019-03-24T19:17:49.684Z,4.70
2019-03-24T19:20:25.394Z,4.60
2019-03-24T19:22:56.081Z,4.60
2019-03-24T19:25:27.085Z,4.50
2019-03-24T19:28:01.739Z,4.50
2019-03-24T19:30:36.497Z,4.50
2019-03-24T19:33:10.544Z,4.50
2019-03-24T19:35:41.420Z,4.40
2019-03-24T19:38:16.268Z,4.50
2019-03-24T19:40:48.049Z,4.40
2019-03-24T19:43:19.217Z,4.50
2019-03-24T19:45:53.132Z,4.40
2019-03-24T19:48:29.106Z,4.40
2019-03-24T19:51:03.714Z,4.30
2019-03-24T19:53:34.031Z,4.30
2019-03-24T19:56:05.968Z,4.20
2019-03-24T19:58:40.216Z,4.20
2019-03-24T20:01:14.505Z,4.10
2019-03-24T20:03:46.729Z,4.20
2019-03-24T20:06:16.993Z,4.10
2019-03-24T20:08:46.937Z,4.10
2019-03-24T20:11:22.628Z,4.10
2019-03-24T20:13:53.848Z,4.10
2019-03-24T20:16:26.156Z,4.10
2019-03-24T20:18:57.943Z,4.00
2019-03-24T20:21:28.109Z,3.90
2019-03-24T20:23:59.400Z,3.90
2019-03-24T20:26:29.816Z,3.90
2019-03-24T20:29:00.128Z,3.90
2019-03-24T20:31:32.397Z,4.00
2019-03-24T20:34:01.829Z,4.00
2019-03-24T20:36:33.841Z,3.90
2019-03-24T20:39:06.897Z,3.80
2019-03-24T20:41:39.625Z,3.80
2019-03-24T20:44:12.395Z,3.80
2019-03-24T20:46:43.953Z,3.70
2019-03-24T20:49:16.260Z,3.60
2019-03-24T20:51:48.358Z,3.60
2019-03-24T20:54:21.078Z,3.70
2019-03-24T20:56:51.246Z,3.60
2019-03-24T20:59:25.320Z,3.60
2019-03-24T21:01:59.050Z,3.50
2019-03-24T21:04:30.604Z,3.40
2019-03-24T21:07:04.969Z,3.50
2019-03-24T21:09:38.408Z,3.40
2019-03-24T21:12:11.184Z,3.40
2019-03-24T21:14:44.917Z,3.30
2019-03-24T21:17:15.252Z,3.30
2019-03-24T21:19:45.059Z,3.40
2019-03-24T21:22:15.186Z,3.30
2019-03-24T21:24:46.933Z,3.40
2019-03-24T21:27:20.073Z,3.30
2019-03-24T21:29:51.848Z,3.30
2019-03-24T21:32:23.737Z,3.40
2019-03-24T21:34:56.653Z,3.20
2019-03-24T21:37:30.629Z,3.20
2019-03-24T21:40:08.408Z,3.20
2019-03-24T21:42:41.230Z,3.30
2019-03-24T21:45:13.709Z,3.30
2019-03-24T21:47:46.412Z,3.30
2019-03-24T21:50:21.393Z,3.30
2019-03-24T21:52:53.857Z,3.20
2019-03-24T21:55:27.664Z,3.30
2019-03-24T21:58:01.188Z,3.20
2019-03-24T22:00:35.588Z,3.30
2019-03-24T22:03:07.435Z,3.30
2019-03-24T22:05:38.754Z,3.30
2019-03-24T22:08:14.028Z,3.20
2019-03-24T22:10:48.522Z,3.10
2019-03-24T22:13:22.925Z,3.20
2019-03-24T22:15:52.312Z,3.20
2019-03-24T22:18:21.737Z,3.20
2019-03-24T22:20:51.925Z,3.30
2019-03-24T22:23:21.780Z,3.20
2019-03-24T22:25:55.145Z,3.20
2019-03-24T22:28:27.863Z,3.20
2019-03-24T22:30:59.551Z,3.20
2019-03-24T22:33:30.504Z,3.20
2019-03-24T22:36:01.192Z,3.20
2019-03-24T22:38:37.126Z,3.10
2019-03-24T22:41:11.159Z,3.10
2019-03-24T22:43:44.998Z,3.10
2019-03-24T22:46:16.896Z,3.10
2019-03-24T22:48:49.452Z,3.00
2019-03-24T22:51:26.388Z,3.00
2019-03-24T22:54:03.440Z,3.00
2019-03-24T22:56:34.966Z,2.90
2019-03-24T22:59:05.448Z,2.80
2019-03-24T23:01:38.161Z,2.80
2019-03-24T23:04:10.026Z,2.80
2019-03-24T23:06:41.833Z,2.80
2019-03-24T23:09:15.505Z,2.70
2019-03-24T23:11:48.009Z,2.70
2019-03-24T23:14:20.214Z,2.60
2019-03-24T23:16:50.224Z,2.50
2019-03-24T23:19:23.844Z,2.50
2019-03-24T23:21:57.864Z,2.50
2019-03-24T23:24:31.401Z,2.40
2019-03-24T23:27:02.824Z,2.30
2019-03-24T23:29:32.978Z,2.40
2019-03-24T23:32:02.769Z,2.40
2019-03-24T23:34:31.947Z,2.40
2019-03-24T23:37:01.146Z,2.30
2019-03-24T23:39:34.721Z,2.30
2019-03-24T23:42:06.257Z,2.30
2019-03-24T23:44:36.641Z,2.20
2019-03-24T23:47:08.598Z,2.20
2019-03-24T23:49:39.241Z,2.10
2019-03-24T23:52:08.968Z,2.10
2019-03-24T23:54:40.105Z,2.10
2019-03-24T23:57:13.320Z,2.10
2019-03-24T23:59:45.449Z,2.10
